sensor_id;sensor_type;location;lat;lon;timestamp;pressure;altitude;pressure_sealevel;temperature;humidity
65280;BME280;51878;55.748;48.742;2023-02-16T00:01:55;99387.91;;;-9.67;99.85
65280;BME280;51878;55.748;48.742;2023-02-16T00:04:27;99399.13;;;-9.85;99.69
65280;BME280;51878;55.748;48.742;2023-02-16T00:06:55;99298.19;;;-10.40;100.00
65280;BME280;51878;55.748;48.742;2023-02-16T00:09:23;99383.72;;;-10.16;100.00
65280;BME280;51878;55.748;48.742;2023-02-16T00:11:51;99292.81;;;-10.36;100.00
65280;BME280;51878;55.748;48.742;2023-02-16T00:14:38;99338.03;;;-10.09;100.00
65280;BME280;51878;55.748;48.742;2023-02-16T00:17:08;99358.25;;;-10.13;99.78
65280;BME280;51878;55.748;48.742;2023-02-16T00:19:38;99347.94;;;-10.18;99.36
65280;BME280;51878;55.748;48.742;2023-02-16T00:22:06;99392.31;;;-10.13;99.43
65280;BME280;51878;55.748;48.742;2023-02-16T00:24:34;99376.38;;;-10.29;99.75
65280;BME280;51878;55.748;48.742;2023-02-16T00:27:01;99343.19;;;-10.30;99.82
65280;BME280;51878;55.748;48.742;2023-02-16T00:29:35;99371.94;;;-10.05;99.01
65280;BME280;51878;55.748;48.742;2023-02-16T00:32:04;99366.47;;;-10.22;99.94
65280;BME280;51878;55.748;48.742;2023-02-16T00:34:39;99291.03;;;-10.82;100.00
65280;BME280;51878;55.748;48.742;2023-02-16T00:37:09;99267.25;;;-10.99;100.00
65280;BME280;51878;55.748;48.742;2023-02-16T00:39:37;99373.34;;;-10.42;100.00
65280;BME280;51878;55.748;48.742;2023-02-16T00:42:20;99365.94;;;-10.54;100.00
65280;BME280;51878;55.748;48.742;2023-02-16T00:44:51;99366.44;;;-10.68;100.00
65280;BME280;51878;55.748;48.742;2023-02-16T00:49:53;99321.81;;;-10.88;100.00
65280;BME280;51878;55.748;48.742;2023-02-16T00:52:36;99389.91;;;-10.41;100.00
65280;BME280;51878;55.748;48.742;2023-02-16T00:55:09;99277.47;;;-11.16;100.00
65280;BME280;51878;55.748;48.742;2023-02-16T00:57:51;99368.44;;;-10.74;100.00
65280;BME280;51878;55.748;48.742;2023-02-16T01:00:26;99403.75;;;-10.61;100.00
65280;BME280;51878;55.748;48.742;2023-02-16T01:02:57;99314.59;;;-11.30;100.00
65280;BME280;51878;55.748;48.742;2023-02-16T01:05:24;99387.97;;;-10.59;100.00
65280;BME280;51878;55.748;48.742;2023-02-16T01:07:51;99362.47;;;-10.54;100.00
65280;BME280;51878;55.748;48.742;2023-02-16T01:10:37;99349.78;;;-10.89;100.00
65280;BME280;51878;55.748;48.742;2023-02-16T01:13:26;99380.84;;;-10.79;100.00
65280;BME280;51878;55.748;48.742;2023-02-16T01:15:53;99313.56;;;-11.01;100.00
65280;BME280;51878;55.748;48.742;2023-02-16T01:18:20;99428.69;;;-10.51;100.00
65280;BME280;51878;55.748;48.742;2023-02-16T01:20:48;99340.66;;;-11.02;100.00
65280;BME280;51878;55.748;48.742;2023-02-16T01:23:15;99359.44;;;-10.91;100.00
65280;BME280;51878;55.748;48.742;2023-02-16T01:25:42;99361.75;;;-10.83;100.00
65280;BME280;51878;55.748;48.742;2023-02-16T01:28:19;99208.53;;;-11.88;100.00
65280;BME280;51878;55.748;48.742;2023-02-16T01:30:46;99391.69;;;-10.90;100.00
65280;BME280;51878;55.748;48.742;2023-02-16T01:33:14;99386.72;;;-10.73;100.00
65280;BME280;51878;55.748;48.742;2023-02-16T01:35:41;99435.06;;;-10.58;100.00
65280;BME280;51878;55.748;48.742;2023-02-16T01:38:20;99358.47;;;-11.13;100.00
65280;BME280;51878;55.748;48.742;2023-02-16T01:43:58;99359.84;;;-11.03;100.00
65280;BME280;51878;55.748;48.742;2023-02-16T01:49:13;99430.72;;;-10.59;100.00
65280;BME280;51878;55.748;48.742;2023-02-16T01:52:05;99446.31;;;-10.31;100.00
65280;BME280;51878;55.748;48.742;2023-02-16T01:54:43;99448.94;;;-10.31;100.00
65280;BME280;51878;55.748;48.742;2023-02-16T01:57:29;99377.69;;;-10.89;100.00
65280;BME280;51878;55.748;48.742;2023-02-16T02:00:04;99421.69;;;-10.50;100.00
65280;BME280;51878;55.748;48.742;2023-02-16T02:02:35;99376.84;;;-10.90;100.00
65280;BME280;51878;55.748;48.742;2023-02-16T02:08:32;99456.53;;;-10.25;100.00
65280;BME280;51878;55.748;48.742;2023-02-16T02:13:44;99456.13;;;-10.36;100.00
65280;BME280;51878;55.748;48.742;2023-02-16T02:16:31;99437.59;;;-10.31;99.85
65280;BME280;51878;55.748;48.742;2023-02-16T02:18:58;99395.63;;;-10.53;99.39
65280;BME280;51878;55.748;48.742;2023-02-16T02:27:40;99445.25;;;-10.27;100.00
65280;BME280;51878;55.748;48.742;2023-02-16T02:30:32;99362.13;;;-10.69;99.90
65280;BME280;51878;55.748;48.742;2023-02-16T02:33:50;99403.22;;;-10.71;100.00
65280;BME280;51878;55.748;48.742;2023-02-16T02:36:35;99486.97;;;-10.21;100.00
65280;BME280;51878;55.748;48.742;2023-02-16T02:42:04;99471.59;;;-10.06;100.00
65280;BME280;51878;55.748;48.742;2023-02-16T02:44:41;99386.81;;;-10.76;100.00
65280;BME280;51878;55.748;48.742;2023-02-16T02:47:11;99363.56;;;-11.09;100.00
65280;BME280;51878;55.748;48.742;2023-02-16T02:49:38;99386.44;;;-10.65;100.00
65280;BME280;51878;55.748;48.742;2023-02-16T02:52:05;99363.53;;;-10.84;100.00
65280;BME280;51878;55.748;48.742;2023-02-16T02:54:34;99439.50;;;-10.60;100.00
65280;BME280;51878;55.748;48.742;2023-02-16T02:57:42;99454.59;;;-10.43;100.00
65280;BME280;51878;55.748;48.742;2023-02-16T03:05:37;99428.31;;;-10.65;100.00
65280;BME280;51878;55.748;48.742;2023-02-16T03:08:08;99219.06;;;-11.91;100.00
65280;BME280;51878;55.748;48.742;2023-02-16T03:10:51;99371.09;;;-10.99;100.00
65280;BME280;51878;55.748;48.742;2023-02-16T03:13:42;99453.75;;;-10.44;100.00
65280;BME280;51878;55.748;48.742;2023-02-16T03:16:13;99421.91;;;-10.56;100.00
65280;BME280;51878;55.748;48.742;2023-02-16T03:18:43;99356.06;;;-10.94;100.00
65280;BME280;51878;55.748;48.742;2023-02-16T03:21:31;99374.97;;;-10.86;100.00
65280;BME280;51878;55.748;48.742;2023-02-16T03:24:24;99465.38;;;-10.51;100.00
65280;BME280;51878;55.748;48.742;2023-02-16T03:27:12;99390.69;;;-10.86;100.00
65280;BME280;51878;55.748;48.742;2023-02-16T03:30:00;99397.81;;;-10.91;100.00
65280;BME280;51878;55.748;48.742;2023-02-16T03:32:29;99445.38;;;-10.53;100.00
65280;BME280;51878;55.748;48.742;2023-02-16T03:34:57;99439.09;;;-10.73;100.00
65280;BME280;51878;55.748;48.742;2023-02-16T03:37:24;99436.13;;;-10.64;100.00
65280;BME280;51878;55.748;48.742;2023-02-16T03:39:51;99455.44;;;-10.66;100.00
65280;BME280;51878;55.748;48.742;2023-02-16T03:42:38;99373.47;;;-11.18;100.00
65280;BME280;51878;55.748;48.742;2023-02-16T03:45:05;99448.97;;;-10.81;100.00
65280;BME280;51878;55.748;48.742;2023-02-16T03:47:33;99432.78;;;-10.92;100.00
65280;BME280;51878;55.748;48.742;2023-02-16T03:49:59;99451.88;;;-10.65;100.00
65280;BME280;51878;55.748;48.742;2023-02-16T03:52:33;99447.53;;;-10.65;100.00
65280;BME280;51878;55.748;48.742;2023-02-16T03:55:00;99461.53;;;-10.66;100.00
65280;BME280;51878;55.748;48.742;2023-02-16T03:57:29;99440.09;;;-10.77;100.00
65280;BME280;51878;55.748;48.742;2023-02-16T03:59:56;99392.69;;;-10.94;100.00
65280;BME280;51878;55.748;48.742;2023-02-16T04:02:27;99382.22;;;-10.94;100.00
65280;BME280;51878;55.748;48.742;2023-02-16T04:04:54;99429.44;;;-10.47;100.00
65280;BME280;51878;55.748;48.742;2023-02-16T04:07:21;99376.81;;;-10.65;100.00
65280;BME280;51878;55.748;48.742;2023-02-16T04:09:48;99451.34;;;-10.50;100.00
65280;BME280;51878;55.748;48.742;2023-02-16T04:12:15;99429.78;;;-10.33;100.00
65280;BME280;51878;55.748;48.742;2023-02-16T04:15:21;99448.56;;;-10.22;100.00
65280;BME280;51878;55.748;48.742;2023-02-16T04:17:49;99268.13;;;-11.24;100.00
65280;BME280;51878;55.748;48.742;2023-02-16T04:20:18;99372.91;;;-10.53;100.00
65280;BME280;51878;55.748;48.742;2023-02-16T04:22:46;99414.88;;;-10.31;100.00
65280;BME280;51878;55.748;48.742;2023-02-16T04:25:14;99469.97;;;-9.87;100.00
65280;BME280;51878;55.748;48.742;2023-02-16T04:27:42;99449.22;;;-9.93;100.00
65280;BME280;51878;55.748;48.742;2023-02-16T04:30:19;99395.97;;;-10.17;100.00
65280;BME280;51878;55.748;48.742;2023-02-16T04:32:46;99451.06;;;-9.95;100.00
65280;BME280;51878;55.748;48.742;2023-02-16T04:35:14;99406.59;;;-10.20;100.00
65280;BME280;51878;55.748;48.742;2023-02-16T04:37:41;99391.28;;;-10.31;100.00
65280;BME280;51878;55.748;48.742;2023-02-16T04:40:10;99477.84;;;-9.63;100.00
65280;BME280;51878;55.748;48.742;2023-02-16T04:42:40;99452.63;;;-9.67;100.00
65280;BME280;51878;55.748;48.742;2023-02-16T04:45:13;99471.19;;;-9.50;100.00
65280;BME280;51878;55.748;48.742;2023-02-16T04:47:42;99403.63;;;-9.89;100.00
65280;BME280;51878;55.748;48.742;2023-02-16T04:50:10;99491.75;;;-9.39;100.00
65280;BME280;51878;55.748;48.742;2023-02-16T04:52:37;99479.50;;;-9.17;100.00
65280;BME280;51878;55.748;48.742;2023-02-16T04:55:05;99443.41;;;-9.33;100.00
65280;BME280;51878;55.748;48.742;2023-02-16T04:57:33;99487.28;;;-9.15;100.00
65280;BME280;51878;55.748;48.742;2023-02-16T05:00:00;99497.09;;;-8.98;100.00
65280;BME280;51878;55.748;48.742;2023-02-16T05:02:31;99466.78;;;-9.27;100.00
65280;BME280;51878;55.748;48.742;2023-02-16T05:04:58;99443.13;;;-9.26;100.00
65280;BME280;51878;55.748;48.742;2023-02-16T05:07:25;99469.94;;;-8.97;99.60
65280;BME280;51878;55.748;48.742;2023-02-16T05:09:52;99475.31;;;-8.80;99.73
65280;BME280;51878;55.748;48.742;2023-02-16T05:12:19;99504.75;;;-8.71;98.52
65280;BME280;51878;55.748;48.742;2023-02-16T05:15:05;99511.66;;;-8.69;98.23
65280;BME280;51878;55.748;48.742;2023-02-16T05:17:32;99481.91;;;-8.49;97.65
65280;BME280;51878;55.748;48.742;2023-02-16T05:19:59;99373.75;;;-9.00;97.08
65280;BME280;51878;55.748;48.742;2023-02-16T05:22:29;99526.53;;;-8.08;96.34
65280;BME280;51878;55.748;48.742;2023-02-16T05:25:00;99497.31;;;-8.82;95.81
65280;BME280;51878;55.748;48.742;2023-02-16T05:27:32;99503.81;;;-8.29;96.12
65280;BME280;51878;55.748;48.742;2023-02-16T05:29:59;99524.88;;;-8.50;97.01
65280;BME280;51878;55.748;48.742;2023-02-16T05:32:26;99445.59;;;-8.80;97.80
65280;BME280;51878;55.748;48.742;2023-02-16T05:34:53;99422.94;;;-9.03;97.16
65280;BME280;51878;55.748;48.742;2023-02-16T05:37:20;99540.22;;;-8.20;97.17
65280;BME280;51878;55.748;48.742;2023-02-16T05:39:49;99454.59;;;-8.65;96.18
65280;BME280;51878;55.748;48.742;2023-02-16T05:42:16;99506.16;;;-8.42;96.03
65280;BME280;51878;55.748;48.742;2023-02-16T05:44:43;99462.53;;;-8.46;95.81
65280;BME280;51878;55.748;48.742;2023-02-16T05:47:10;99463.84;;;-8.57;94.67
65280;BME280;51878;55.748;48.742;2023-02-16T05:49:37;99531.75;;;-8.06;95.06
65280;BME280;51878;55.748;48.742;2023-02-16T05:52:04;99457.06;;;-8.23;94.65
65280;BME280;51878;55.748;48.742;2023-02-16T05:54:32;99528.13;;;-7.85;94.36
65280;BME280;51878;55.748;48.742;2023-02-16T05:56:59;99505.50;;;-8.08;94.24
65280;BME280;51878;55.748;48.742;2023-02-16T05:59:26;99526.13;;;-7.99;94.34
65280;BME280;51878;55.748;48.742;2023-02-16T06:01:54;99552.09;;;-7.52;93.93
65280;BME280;51878;55.748;48.742;2023-02-16T06:04:21;99493.50;;;-7.95;93.87
65280;BME280;51878;55.748;48.742;2023-02-16T06:06:48;99537.75;;;-7.84;93.11
65280;BME280;51878;55.748;48.742;2023-02-16T06:09:15;99541.69;;;-7.55;92.88
65280;BME280;51878;55.748;48.742;2023-02-16T06:11:43;99531.00;;;-7.71;93.13
65280;BME280;51878;55.748;48.742;2023-02-16T06:14:15;99518.13;;;-7.39;92.54
65280;BME280;51878;55.748;48.742;2023-02-16T06:16:45;99483.50;;;-7.86;91.78
65280;BME280;51878;55.748;48.742;2023-02-16T06:19:15;99485.50;;;-7.54;91.07
65280;BME280;51878;55.748;48.742;2023-02-16T06:21:43;99420.72;;;-7.75;90.16
65280;BME280;51878;55.748;48.742;2023-02-16T06:24:14;99529.44;;;-7.18;89.89
65280;BME280;51878;55.748;48.742;2023-02-16T06:26:41;99548.69;;;-6.62;88.59
65280;BME280;51878;55.748;48.742;2023-02-16T06:29:09;99549.69;;;-7.18;88.66
65280;BME280;51878;55.748;48.742;2023-02-16T06:31:36;99472.59;;;-7.41;90.00
65280;BME280;51878;55.748;48.742;2023-02-16T06:34:04;99537.19;;;-7.15;89.31
65280;BME280;51878;55.748;48.742;2023-02-16T06:36:31;99540.47;;;-6.73;89.21
65280;BME280;51878;55.748;48.742;2023-02-16T06:38:59;99392.34;;;-7.87;88.54
65280;BME280;51878;55.748;48.742;2023-02-16T06:41:26;99285.66;;;-7.93;87.14
65280;BME280;51878;55.748;48.742;2023-02-16T06:44:10;99552.06;;;-6.41;85.57
65280;BME280;51878;55.748;48.742;2023-02-16T06:46:45;99496.47;;;-5.87;83.44
65280;BME280;51878;55.748;48.742;2023-02-16T06:49:15;99464.94;;;-6.39;82.71
65280;BME280;51878;55.748;48.742;2023-02-16T06:51:53;99527.88;;;-5.49;81.36
65280;BME280;51878;55.748;48.742;2023-02-16T06:54:20;99478.97;;;-5.72;81.73
65280;BME280;51878;55.748;48.742;2023-02-16T06:56:49;99512.50;;;-5.74;81.50
65280;BME280;51878;55.748;48.742;2023-02-16T06:59:16;99526.75;;;-5.61;81.75
65280;BME280;51878;55.748;48.742;2023-02-16T07:01:43;99541.56;;;-5.74;82.45
65280;BME280;51878;55.748;48.742;2023-02-16T07:04:11;99534.19;;;-5.85;83.04
65280;BME280;51878;55.748;48.742;2023-02-16T07:06:38;99484.19;;;-6.04;83.50
65280;BME280;51878;55.748;48.742;2023-02-16T07:09:05;99520.75;;;-5.96;84.02
65280;BME280;51878;55.748;48.742;2023-02-16T07:11:32;99554.56;;;-5.71;83.38
65280;BME280;51878;55.748;48.742;2023-02-16T07:14:00;99512.81;;;-5.96;83.66
65280;BME280;51878;55.748;48.742;2023-02-16T07:16:27;99523.91;;;-6.40;84.33
65280;BME280;51878;55.748;48.742;2023-02-16T07:18:54;99474.09;;;-6.47;85.33
65280;BME280;51878;55.748;48.742;2023-02-16T07:21:21;99579.72;;;-5.97;85.63
65280;BME280;51878;55.748;48.742;2023-02-16T07:23:48;99550.94;;;-6.02;86.08
65280;BME280;51878;55.748;48.742;2023-02-16T07:26:15;99510.69;;;-6.23;86.65
65280;BME280;51878;55.748;48.742;2023-02-16T07:28:43;99496.66;;;-6.06;85.70
65280;BME280;51878;55.748;48.742;2023-02-16T07:31:12;99537.00;;;-6.21;84.46
65280;BME280;51878;55.748;48.742;2023-02-16T07:33:40;99533.16;;;-5.98;84.21
65280;BME280;51878;55.748;48.742;2023-02-16T07:36:08;99491.13;;;-6.01;84.38
65280;BME280;51878;55.748;48.742;2023-02-16T07:38:36;99569.22;;;-5.48;84.10
65280;BME280;51878;55.748;48.742;2023-02-16T07:41:04;99581.16;;;-5.74;84.10
65280;BME280;51878;55.748;48.742;2023-02-16T07:43:35;99550.16;;;-5.22;83.11
65280;BME280;51878;55.748;48.742;2023-02-16T07:46:05;99577.44;;;-5.54;83.86
65280;BME280;51878;55.748;48.742;2023-02-16T07:48:32;99580.06;;;-5.21;83.83
65280;BME280;51878;55.748;48.742;2023-02-16T07:50:59;99566.34;;;-4.80;82.59
65280;BME280;51878;55.748;48.742;2023-02-16T07:53:30;99510.78;;;-5.42;81.52
65280;BME280;51878;55.748;48.742;2023-02-16T07:55:57;99370.50;;;-5.99;82.49
65280;BME280;51878;55.748;48.742;2023-02-16T07:58:27;99581.25;;;-4.79;80.52
65280;BME280;51878;55.748;48.742;2023-02-16T08:01:13;99584.25;;;-5.66;83.00
65280;BME280;51878;55.748;48.742;2023-02-16T08:03:45;99602.91;;;-4.72;83.45
65280;BME280;51878;55.748;48.742;2023-02-16T08:06:17;99589.81;;;-4.74;82.07
65280;BME280;51878;55.748;48.742;2023-02-16T08:08:47;99602.75;;;-5.01;83.27
65280;BME280;51878;55.748;48.742;2023-02-16T08:11:22;99606.41;;;-5.20;83.33
65280;BME280;51878;55.748;48.742;2023-02-16T08:13:50;99585.59;;;-5.10;82.45
65280;BME280;51878;55.748;48.742;2023-02-16T08:16:20;99597.13;;;-5.27;83.56
65280;BME280;51878;55.748;48.742;2023-02-16T08:18:48;99607.25;;;-5.03;83.92
65280;BME280;51878;55.748;48.742;2023-02-16T08:21:19;99527.72;;;-5.14;83.82
65280;BME280;51878;55.748;48.742;2023-02-16T08:23:54;99510.94;;;-5.13;82.50
65280;BME280;51878;55.748;48.742;2023-02-16T08:26:26;99546.72;;;-5.40;82.56
65280;BME280;51878;55.748;48.742;2023-02-16T08:28:57;99602.91;;;-4.57;82.22
65280;BME280;51878;55.748;48.742;2023-02-16T08:31:26;99553.53;;;-4.72;81.09
65280;BME280;51878;55.748;48.742;2023-02-16T08:33:57;99602.00;;;-4.71;81.76
65280;BME280;51878;55.748;48.742;2023-02-16T08:36:40;99579.94;;;-4.10;79.16
65280;BME280;51878;55.748;48.742;2023-02-16T08:39:11;99588.78;;;-3.66;77.88
65280;BME280;51878;55.748;48.742;2023-02-16T08:41:41;99587.88;;;-2.81;76.22
65280;BME280;51878;55.748;48.742;2023-02-16T08:44:13;99515.81;;;-3.15;72.37
65280;BME280;51878;55.748;48.742;2023-02-16T08:46:51;99601.78;;;-1.96;73.31
65280;BME280;51878;55.748;48.742;2023-02-16T08:49:22;99445.06;;;-3.41;70.70
65280;BME280;51878;55.748;48.742;2023-02-16T08:51:58;99595.44;;;-2.33;72.52
65280;BME280;51878;55.748;48.742;2023-02-16T08:54:28;99608.78;;;-2.35;71.70
65280;BME280;51878;55.748;48.742;2023-02-16T08:56:57;99524.38;;;-2.42;70.31
65280;BME280;51878;55.748;48.742;2023-02-16T08:59:25;99578.22;;;-1.75;68.42
65280;BME280;51878;55.748;48.742;2023-02-16T09:01:55;99608.84;;;-1.31;67.94
65280;BME280;51878;55.748;48.742;2023-02-16T09:04:24;99557.06;;;-1.63;67.99
65280;BME280;51878;55.748;48.742;2023-02-16T09:06:52;99604.50;;;-1.32;68.01
65280;BME280;51878;55.748;48.742;2023-02-16T09:09:19;99548.84;;;-2.24;69.03
65280;BME280;51878;55.748;48.742;2023-02-16T09:11:48;99608.50;;;-1.26;66.60
65280;BME280;51878;55.748;48.742;2023-02-16T09:14:18;99532.56;;;-1.30;65.67
65280;BME280;51878;55.748;48.742;2023-02-16T09:16:47;99606.34;;;-0.95;66.93
65280;BME280;51878;55.748;48.742;2023-02-16T09:19:17;99574.38;;;-2.36;68.94
65280;BME280;51878;55.748;48.742;2023-02-16T09:21:45;99605.88;;;-0.76;66.95
65280;BME280;51878;55.748;48.742;2023-02-16T09:24:13;99456.06;;;-2.53;69.08
65280;BME280;51878;55.748;48.742;2023-02-16T09:26:41;99548.72;;;-0.35;65.19
65280;BME280;51878;55.748;48.742;2023-02-16T09:29:11;99547.78;;;-0.34;63.68
65280;BME280;51878;55.748;48.742;2023-02-16T09:31:38;99587.84;;;0.35;63.31
65280;BME280;51878;55.748;48.742;2023-02-16T09:34:15;99569.09;;;1.04;60.39
65280;BME280;51878;55.748;48.742;2023-02-16T09:36:43;99610.56;;;0.74;62.81
65280;BME280;51878;55.748;48.742;2023-02-16T09:39:10;99541.09;;;0.53;62.52
65280;BME280;51878;55.748;48.742;2023-02-16T09:47:27;99604.38;;;1.30;60.09
65280;BME280;51878;55.748;48.742;2023-02-16T09:52:43;99545.50;;;0.19;60.66
65280;BME280;51878;55.748;48.742;2023-02-16T09:55:18;99624.53;;;-0.15;62.10
65280;BME280;51878;55.748;48.742;2023-02-16T09:58:10;99637.03;;;-1.15;65.20
65280;BME280;51878;55.748;48.742;2023-02-16T10:00:49;99645.75;;;-1.26;63.98
65280;BME280;51878;55.748;48.742;2023-02-16T10:06:33;99584.94;;;-1.56;66.12
65280;BME280;51878;55.748;48.742;2023-02-16T10:09:10;99622.72;;;-1.91;67.96
65280;BME280;51878;55.748;48.742;2023-02-16T10:11:49;99657.75;;;-1.99;68.20
65280;BME280;51878;55.748;48.742;2023-02-16T10:17:01;99650.00;;;-1.49;68.57
65280;BME280;51878;55.748;48.742;2023-02-16T10:19:47;99643.47;;;-1.83;70.50
65280;BME280;51878;55.748;48.742;2023-02-16T10:22:24;99508.88;;;-2.23;68.99
65280;BME280;51878;55.748;48.742;2023-02-16T10:25:04;99633.81;;;-0.95;66.16
65280;BME280;51878;55.748;48.742;2023-02-16T10:27:38;99657.84;;;-0.10;62.51
65280;BME280;51878;55.748;48.742;2023-02-16T10:30:15;99645.28;;;1.42;59.89
65280;BME280;51878;55.748;48.742;2023-02-16T10:32:58;99640.66;;;0.88;59.79
65280;BME280;51878;55.748;48.742;2023-02-16T10:35:51;99585.25;;;-0.13;62.46
65280;BME280;51878;55.748;48.742;2023-02-16T10:43:57;99652.06;;;-0.04;63.67
65280;BME280;51878;55.748;48.742;2023-02-16T10:46:35;99657.13;;;-0.86;64.73
65280;BME280;51878;55.748;48.742;2023-02-16T10:49:04;99460.34;;;-2.38;67.38
65280;BME280;51878;55.748;48.742;2023-02-16T10:51:35;99642.38;;;-1.94;68.38
65280;BME280;51878;55.748;48.742;2023-02-16T10:54:06;99558.56;;;-2.25;70.65
65280;BME280;51878;55.748;48.742;2023-02-16T10:56:52;99667.75;;;-1.62;70.43
65280;BME280;51878;55.748;48.742;2023-02-16T10:59:55;99612.13;;;-2.18;71.73
65280;BME280;51878;55.748;48.742;2023-02-16T11:02:18;99671.53;;;-2.61;73.79
65280;BME280;51878;55.748;48.742;2023-02-16T11:04:47;99629.63;;;-2.56;75.37
65280;BME280;51878;55.748;48.742;2023-02-16T11:07:20;99662.00;;;-3.06;75.82
65280;BME280;51878;55.748;48.742;2023-02-16T11:09:52;99644.75;;;-2.85;77.66
65280;BME280;51878;55.748;48.742;2023-02-16T11:12:32;99592.50;;;-3.12;76.45
65280;BME280;51878;55.748;48.742;2023-02-16T11:15:24;99676.44;;;-2.69;77.04
65280;BME280;51878;55.748;48.742;2023-02-16T11:18:07;99651.66;;;-3.11;78.04
65280;BME280;51878;55.748;48.742;2023-02-16T11:28:43;99629.38;;;-2.38;74.95
65280;BME280;51878;55.748;48.742;2023-02-16T11:34:23;99623.72;;;-3.02;76.21
65280;BME280;51878;55.748;48.742;2023-02-16T11:37:04;99621.28;;;-3.20;77.38
65280;BME280;51878;55.748;48.742;2023-02-16T11:39:35;99627.44;;;-3.48;79.41
65280;BME280;51878;55.748;48.742;2023-02-16T11:42:17;99626.13;;;-3.12;78.75
65280;BME280;51878;55.748;48.742;2023-02-16T11:44:50;99615.97;;;-3.63;80.61
65280;BME280;51878;55.748;48.742;2023-02-16T11:52:33;99703.38;;;-3.33;82.40
65280;BME280;51878;55.748;48.742;2023-02-16T11:55:00;99699.06;;;-3.80;83.06
65280;BME280;51878;55.748;48.742;2023-02-16T11:57:34;99631.94;;;-3.79;82.60
65280;BME280;51878;55.748;48.742;2023-02-16T12:00:14;99617.00;;;-3.65;81.38
65280;BME280;51878;55.748;48.742;2023-02-16T12:05:24;99676.31;;;-3.98;83.71
65280;BME280;51878;55.748;48.742;2023-02-16T12:19:17;99725.00;;;-3.40;85.52
65280;BME280;51878;55.748;48.742;2023-02-16T12:21:50;99705.66;;;-3.87;85.55
65280;BME280;51878;55.748;48.742;2023-02-16T12:24:40;99733.22;;;-4.05;87.04
65280;BME280;51878;55.748;48.742;2023-02-16T12:27:37;99728.50;;;-4.00;88.16
65280;BME280;51878;55.748;48.742;2023-02-16T12:30:32;99728.13;;;-3.78;87.88
65280;BME280;51878;55.748;48.742;2023-02-16T12:39:10;99658.13;;;-4.66;90.06
65280;BME280;51878;55.748;48.742;2023-02-16T12:47:24;99746.78;;;-4.43;90.99
65280;BME280;51878;55.748;48.742;2023-02-16T12:50:05;99646.59;;;-4.81;90.77
65280;BME280;51878;55.748;48.742;2023-02-16T12:52:40;99736.69;;;-4.52;91.41
65280;BME280;51878;55.748;48.742;2023-02-16T12:57:44;99730.75;;;-4.40;92.47
65280;BME280;51878;55.748;48.742;2023-02-16T13:00:18;99716.56;;;-4.71;93.26
65280;BME280;51878;55.748;48.742;2023-02-16T13:02:49;99673.63;;;-4.92;93.11
65280;BME280;51878;55.748;48.742;2023-02-16T13:05:35;99688.34;;;-5.04;94.13
65280;BME280;51878;55.748;48.742;2023-02-16T13:08:35;99742.41;;;-4.76;95.36
65280;BME280;51878;55.748;48.742;2023-02-16T13:13:48;99781.69;;;-4.86;96.75
65280;BME280;51878;55.748;48.742;2023-02-16T13:16:20;99774.72;;;-4.87;97.24
65280;BME280;51878;55.748;48.742;2023-02-16T13:18:56;99764.19;;;-4.88;97.10
65280;BME280;51878;55.748;48.742;2023-02-16T13:24:41;99764.63;;;-4.96;98.00
65280;BME280;51878;55.748;48.742;2023-02-16T13:30:43;99780.28;;;-5.26;98.76
65280;BME280;51878;55.748;48.742;2023-02-16T13:36:42;99778.81;;;-4.99;100.00
65280;BME280;51878;55.748;48.742;2023-02-16T13:44:41;99705.22;;;-5.40;100.00
65280;BME280;51878;55.748;48.742;2023-02-16T13:47:13;99708.28;;;-5.31;100.00
65280;BME280;51878;55.748;48.742;2023-02-16T13:49:42;99747.47;;;-5.22;100.00
65280;BME280;51878;55.748;48.742;2023-02-16T13:52:25;99714.47;;;-5.31;100.00
65280;BME280;51878;55.748;48.742;2023-02-16T13:54:54;99757.63;;;-5.14;100.00
65280;BME280;51878;55.748;48.742;2023-02-16T14:00:39;99792.50;;;-4.90;100.00
65280;BME280;51878;55.748;48.742;2023-02-16T14:03:34;99795.31;;;-4.93;100.00
65280;BME280;51878;55.748;48.742;2023-02-16T14:14:31;99751.59;;;-5.34;100.00
65280;BME280;51878;55.748;48.742;2023-02-16T14:20:01;99734.59;;;-5.63;100.00
65280;BME280;51878;55.748;48.742;2023-02-16T14:22:49;99775.53;;;-5.37;100.00
65280;BME280;51878;55.748;48.742;2023-02-16T14:33:21;99798.28;;;-5.17;100.00
65280;BME280;51878;55.748;48.742;2023-02-16T14:38:32;99812.03;;;-5.10;100.00
65280;BME280;51878;55.748;48.742;2023-02-16T14:41:02;99798.34;;;-5.01;100.00
65280;BME280;51878;55.748;48.742;2023-02-16T14:43:41;99808.00;;;-5.00;100.00
65280;BME280;51878;55.748;48.742;2023-02-16T14:55:09;99817.88;;;-5.04;100.00
65280;BME280;51878;55.748;48.742;2023-02-16T15:05:30;99677.59;;;-6.02;100.00
65280;BME280;51878;55.748;48.742;2023-02-16T15:08:13;99749.88;;;-5.70;100.00
65280;BME280;51878;55.748;48.742;2023-02-16T15:10:43;99685.53;;;-6.19;100.00
65280;BME280;51878;55.748;48.742;2023-02-16T15:13:26;99762.16;;;-5.69;100.00
65280;BME280;51878;55.748;48.742;2023-02-16T15:15:59;99830.31;;;-5.23;100.00
65280;BME280;51878;55.748;48.742;2023-02-16T15:18:33;99826.88;;;-5.25;100.00
65280;BME280;51878;55.748;48.742;2023-02-16T15:21:03;99830.47;;;-5.26;100.00
65280;BME280;51878;55.748;48.742;2023-02-16T15:23:33;99736.84;;;-5.73;100.00
65280;BME280;51878;55.748;48.742;2023-02-16T15:26:03;99823.47;;;-5.27;100.00
65280;BME280;51878;55.748;48.742;2023-02-16T15:28:36;99828.06;;;-5.13;100.00
65280;BME280;51878;55.748;48.742;2023-02-16T15:31:15;99786.88;;;-5.35;100.00
65280;BME280;51878;55.748;48.742;2023-02-16T15:33:53;99809.34;;;-5.26;100.00
65280;BME280;51878;55.748;48.742;2023-02-16T15:36:29;99834.44;;;-5.17;100.00
65280;BME280;51878;55.748;48.742;2023-02-16T15:39:11;99818.66;;;-5.19;100.00
65280;BME280;51878;55.748;48.742;2023-02-16T15:41:45;99802.97;;;-5.40;100.00
65280;BME280;51878;55.748;48.742;2023-02-16T15:44:30;99759.06;;;-5.59;100.00
65280;BME280;51878;55.748;48.742;2023-02-16T15:47:09;99746.47;;;-5.72;100.00